Etusivu
METAR-TAF:

METAR-TAF

Lentoasemat :

Karlstad, Ruotsi

Leveyspiiri: 59-26-41N, Pituuspiiri: 013-20-15E, korkeus merenpinnasta: 107 m

Tämänhetkinen sää

Tämä raportti tehtiin 30 minuuttia sitten, kello 22.20 UTC
Tuuli 9 kn etelästä/lounaasta
Lämpötila 5°C
Kosteus 87%
Ilmanpaine 1001 hPa
Näkyvyys 10 km tai enemmän

METAR: ESOK 172220Z AUTO 21009KT 9999 BKN020/// 05/03 Q1001

Aika: 23:50 (22:50 UTC)

Sääennuste

Tämä raportti tehtiin 5 tuntia ja 20 minuuttia sitten, kello 17.30 UTC
Ennuste voimassa 17. päivästä klo 18 UTC - 17. päivään klo 22 UTC
Tuuli 14 kn lounaasta
Näkyvyys 10 km tai enemmän
ei pilviä alle 1500 m:ssä eikä cumulonimbus-pilviä

TAF: ESOK 171730Z 1718/1722 23014KT CAVOK

Säähavainnot ja -ennusteet yli 4000 lentoasemalta (METAR- ja TAF-raportit).

Käytössä olevat sääasemat on merkitty karttaan keltaisilla ja punaisilla pisteillä.

Aseta hiiri pisteen päälle nähdäksesi sääaseman nimen.

Klikkaa sitten nähdäksesi säähavainnot ja -ennusteet.

Kartan vaihtaminen: klikkaa mustalla rastilla varustettuja vihreitä pisteitä, niin voit zoomata sisään; viivalla varustettua vihreää pistettä, niin voit zoomata ulos tai vihreitä nuolia, niin pääset viereisille kartoille.


METAR-TAF: